KBFM/BFM METAR and TAF weather

Enter ICAO airport designator
Station Type Date Time Source
KBFM METAR 2020/08/15 16:53 UTC NOAA

KBFM 151653Z 32009KT 10SM OVC019 31/26 A2997 RMK AO2 SLP150 T03060256


Station Type Date Time Source
KBFM Decoded METAR 2020/08/15 16:53 UTC NOAA

MOBILE DOWNTOWN AIRPORT, AL, United States (KBFM) 30-38N 88-04W 20M
Aug 15, 2020 - 12:53 PM EDT / 2020.08.15 1653 UTC
Wind: from the NW (320 degrees) at 10 MPH (9 KT):0
Visibility: 10 mile(s):0
Sky conditions: overcast
Temperature: 87.1 F (30.6 C)
Heat index: 99.9 F (37.7 C):1
Dew Point: 78.1 F (25.6 C)
Relative Humidity: 74%
Pressure (altimeter): 29.97 in. Hg (1014 hPa)
ob: KBFM 151653Z 32009KT 10SM OVC019 31/26 A2997 RMK AO2 SLP150 T03060256
cycle: 17

Station Type Date Time Source
KBFM TAF 2020/08/15 15:42 UTC NOAA

TAF
AMD KBFM 151439Z 1515/1612 VRB03KT P6SM SCT020 BKN035
FM151600 30007KT P6SM SCT025 BKN040
FM151900 28006KT P6SM SCT040

Example: see airport list